2° Cross Duathlon de Salon Triathlon - 23/10/2016

Jeunes 12 à 15 ans

23 participants classés


Retour au Sommaire - Signaler une erreur - Faire défiler





Pl Do. Nom - Surname Prénom - Name S-Cat /cat TEMPS - Time /sx P1 Tps1 Vit1 P2 Tps2 Vit2 P3 Tps3 Vit3
1 451 YORDIKIAN FLORIAN MMI 1 0:30:07 1 4 0:05:50 20,6 1 0:20:27 16,1 2 0:03:50 15,6
2 436 SERY LOIC MMI 2 0:31:01 2 11 0:06:06 19,6 2 0:20:42 15,9 13 0:04:11 14,3
3 445 BOISBINEUF EMERIC MMI 3 0:31:36 3 1 0:05:38 21,3 3 0:21:56 15,0 6 0:04:02 14,8
4 449 LUCAS DALIGAUD MBE 1 0:33:52 4 6 0:05:57 20,2 4 0:23:54 13,8 5 0:04:00 15,0
5 448 GONZALEZ HUGO MBE 2 0:34:04 5 5 0:05:55 20,3 6 0:24:20 13,6 1 0:03:49 15,7
6 443 AYME LAURIE FMI 1 0:34:27 1 7 0:05:57 20,1 5 0:24:09 13,7 16 0:04:19 13,8
7 431 LOPEZ SIMON MBE 3 0:34:43 6 2 0:05:46 20,8 8 0:24:58 13,2 4 0:03:59 15,0
8 438 BAILET MATHILDE FMI 2 0:35:06 2 15 0:06:19 19,0 7 0:24:27 13,5 14 0:04:18 13,9
9 444 AYME JUSTINE FBE 1 0:36:15 3 18 0:06:30 18,4 9 0:25:25 13,0 15 0:04:19 13,9
10 440 RAHAL CLEO FMI 3 0:36:49 4 8 0:06:00 20,0 10 0:26:13 12,6 19 0:04:35 13,1
11 435 WAGNER THEO MMI 4 0:37:20 7 9 0:06:01 19,9 12 0:27:12 12,1 8 0:04:05 14,6
12 441 BOMEL AUGUSTIN MBE 4 0:37:25 8 10 0:06:05 19,7 11 0:27:12 12,1 10 0:04:06 14,6
13 426 GAMERRE MATTHIEU MBE 5 0:38:22 9 14 0:06:17 19,1 13 0:27:55 11,8 12 0:04:09 14,4
14 430 REYNE LAURA FMI 4 0:38:41 5 3 0:05:48 20,6 15 0:29:00 11,4 3 0:03:52 15,5
15 432 CASTEUR AXEL MMI 5 0:39:15 10 17 0:06:29 18,5 14 0:28:11 11,7 18 0:04:34 13,1
16 442 MELIS LOUIS MBE 6 0:39:24 11 13 0:06:12 19,3 16 0:29:03 11,4 11 0:04:08 14,5
17 434 SORETA LIAM MBE 7 0:41:27 12 16 0:06:24 18,7 19 0:30:59 10,6 7 0:04:03 14,8
18 446 GLIN MALO MBE 8 0:41:35 13 21 0:07:04 16,9 17 0:29:46 11,1 21 0:04:44 12,7
19 437 HECK MAREVA FBE 2 0:41:36 6 12 0:06:11 19,4 20 0:31:19 10,5 9 0:04:06 14,6
20 433 HANICHE ALEXANDRE MBE 9 0:41:58 14 19 0:06:54 17,4 18 0:30:28 10,8 20 0:04:36 13,0
21 427 MERLOS ALEXANDRE MBE 10 0:44:21 15 20 0:06:59 17,1 21 0:32:31 10,1 22 0:04:50 12,4
22 447 RAFALSKI MATHIS MBE 11 0:52:54 16 22 0:07:15 16,5 22 0:41:07 8,0 17 0:04:31 13,3
23 450 PIGALE GABRIEL MBE 12 1:01:12 17 23 0:10:29 11,4 23 0:42:49 7,7 23 0:07:53 7,6

Aucun commentaires pour le moment, donnez votre avis, vos impressions avant, pendant! et après la course

Déjà membre? Identifiez-vous pour commenter l'épreuve ou créer un compte